Time;durP1;ratioP1;P1;durP2;ratioP2;P2;SDS_P1;SDS_P2;PMS_P1;PMS_P2;Temp;Humidity;BMP_temperature;BMP_pressure;BME280_temperature;BME280_humidity;BME280_pressure;Samples;Min_cycle;Max_cycle;Signal;HPM_P1;HPM_P2
2022/07/03 00:00:25;;;;;;;;;;;20.10;99.90;;;;;;5074202;28;20745;-64
2022/07/03 00:02:54;;;;;;;;;;;20.10;99.90;;;;;;5068708;28;20189;-64
2022/07/03 00:05:22;;;;;;;;;;;20.10;99.90;;;;;;5069661;28;20206;-64
2022/07/03 00:07:50;;;;;;;;;;;20.10;99.90;;;;;;5068714;28;20256;-65
2022/07/03 00:10:18;;;;;;;;;;;20.20;99.90;;;;;;5067226;28;20266;-65
2022/07/03 00:12:46;;;;;;;;;;;20.20;99.90;;;;;;5068172;28;20205;-64
2022/07/03 00:15:14;;;;;;;;;;;20.20;99.90;;;;;;5069879;28;20692;-64
2022/07/03 00:17:42;;;;;;;;;;;20.30;99.90;;;;;;5073091;28;20205;-64
2022/07/03 00:20:11;;;;;;;;;;;20.20;99.90;;;;;;5075818;28;20252;-64
2022/07/03 00:22:43;;;;;;;;;;;20.10;99.90;;;;;;5069176;28;20274;-64
2022/07/03 00:25:12;;;;;;;;;;;20.30;99.90;;;;;;5068636;28;20206;-65
2022/07/03 00:27:40;;;;;;;;;;;20.20;99.90;;;;;;5072714;28;20189;-64
2022/07/03 00:30:08;;;;;;;;;;;20.20;99.90;;;;;;5069102;28;20602;-64
2022/07/03 00:32:39;;;;;;;;;;;20.10;99.90;;;;;;5067882;28;20186;-65
2022/07/03 00:35:07;;;;;;;;;;;20.20;99.90;;;;;;5067462;28;20198;-65
2022/07/03 00:37:36;;;;;;;;;;;20.30;99.90;;;;;;5068076;28;20241;-65
2022/07/03 00:40:05;;;;;;;;;;;20.40;99.90;;;;;;5066617;28;20327;-65
2022/07/03 00:42:33;;;;;;;;;;;20.30;99.90;;;;;;5073086;28;20662;-65
2022/07/03 00:45:02;;;;;;;;;;;20.30;99.90;;;;;;5069093;28;20209;-65
2022/07/03 00:47:30;;;;;;;;;;;20.30;99.90;;;;;;5077862;28;20202;-64
2022/07/03 00:49:58;;;;;;;;;;;20.30;99.90;;;;;;5069757;28;20727;-65
2022/07/03 00:52:26;;;;;;;;;;;20.30;99.90;;;;;;5071195;28;20232;-64
2022/07/03 00:54:56;;;;;;;;;;;20.30;99.90;;;;;;5069643;28;20251;-64
2022/07/03 00:57:25;;;;;;;;;;;20.40;99.90;;;;;;5075830;28;20201;-64
2022/07/03 00:59:52;;;;;;;;;;;20.40;99.90;;;;;;5090109;28;20716;-64
2022/07/03 01:02:28;;;;;;;;;;;20.50;99.90;;;;;;5070263;28;20198;-64
2022/07/03 01:05:02;;;;;;;;;;;20.50;99.90;;;;;;5071784;28;20198;-64
2022/07/03 01:07:34;;;;;;;;;;;20.40;99.90;;;;;;5065096;28;20189;-64
2022/07/03 01:10:06;;;;;;;;;;;20.40;99.90;;;;;;5064532;28;20194;-64
2022/07/03 01:12:50;;;;;;;;;;;20.30;99.90;;;;;;5073741;28;20667;-65
2022/07/03 01:15:21;;;;;;;;;;;20.40;99.90;;;;;;5072626;28;20201;-64
2022/07/03 01:17:53;;;;;;;;;;;20.40;99.90;;;;;;5071349;28;20603;-64
2022/07/03 01:20:25;;;;;;;;;;;20.40;99.90;;;;;;5081204;28;20613;-64
2022/07/03 01:22:55;;;;;;;;;;;20.40;99.90;;;;;;5089538;28;20247;-64
2022/07/03 01:25:25;;;;;;;;;;;20.40;99.90;;;;;;5080431;28;20619;-64
2022/07/03 01:27:59;;;;;;;;;;;20.40;99.90;;;;;;5068890;28;20189;-64
2022/07/03 01:30:28;;;;;;;;;;;20.50;99.90;;;;;;5068244;28;20186;-64
2022/07/03 01:32:58;;;;;;;;;;;20.20;99.90;;;;;;5067330;28;20724;-63
2022/07/03 01:35:33;;;;;;;;;;;20.20;99.90;;;;;;5070451;28;20228;-65
2022/07/03 01:38:06;;;;;;;;;;;20.10;99.90;;;;;;5067293;28;20251;-64
2022/07/03 01:40:34;;;;;;;;;;;20.20;99.90;;;;;;5063574;28;20201;-64
2022/07/03 01:43:04;;;;;;;;;;;20.00;99.90;;;;;;5069500;28;20221;-64
2022/07/03 01:45:33;;;;;;;;;;;20.10;99.90;;;;;;5068580;28;20251;-64
2022/07/03 01:48:03;;;;;;;;;;;20.10;99.90;;;;;;5067808;28;20194;-64
2022/07/03 01:50:31;;;;;;;;;;;20.10;99.90;;;;;;5071419;28;20662;-64
2022/07/03 01:53:01;;;;;;;;;;;20.20;99.90;;;;;;5067469;28;20197;-64
2022/07/03 01:55:30;;;;;;;;;;;20.20;99.90;;;;;;5068246;28;20708;-64
2022/07/03 01:57:58;;;;;;;;;;;20.00;99.90;;;;;;5069577;28;20256;-64
2022/07/03 02:00:28;;;;;;;;;;;19.80;99.90;;;;;;5067503;28;20936;-64
2022/07/03 02:02:58;;;;;;;;;;;19.80;99.90;;;;;;5067008;28;20194;-64
2022/07/03 02:05:33;;;;;;;;;;;19.40;99.90;;;;;;5069442;28;20252;-64
2022/07/03 02:08:03;;;;;;;;;;;19.20;99.90;;;;;;5072600;28;20243;-64
2022/07/03 02:10:35;;;;;;;;;;;19.30;99.90;;;;;;5065719;28;20262;-64
2022/07/03 02:13:06;;;;;;;;;;;19.60;99.90;;;;;;5071406;28;20255;-64
2022/07/03 02:15:36;;;;;;;;;;;19.70;99.90;;;;;;5074916;28;20198;-64
2022/07/03 02:18:09;;;;;;;;;;;19.70;99.90;;;;;;5065798;28;20255;-64
2022/07/03 02:20:40;;;;;;;;;;;20.00;99.90;;;;;;5066526;28;20201;-64
2022/07/03 02:23:08;;;;;;;;;;;20.00;99.90;;;;;;5067788;28;20194;-64
2022/07/03 02:25:37;;;;;;;;;;;20.00;99.90;;;;;;5068515;28;20213;-64
2022/07/03 02:28:06;;;;;;;;;;;20.10;99.90;;;;;;5069733;28;20255;-64
2022/07/03 02:30:36;;;;;;;;;;;19.80;99.90;;;;;;5071928;28;20228;-64
2022/07/03 02:33:05;;;;;;;;;;;19.80;99.90;;;;;;5065192;28;20224;-64
2022/07/03 02:35:34;;;;;;;;;;;19.90;99.90;;;;;;5067247;28;20248;-64
2022/07/03 02:38:04;;;;;;;;;;;19.60;99.90;;;;;;5069138;28;20194;-64
2022/07/03 02:40:35;;;;;;;;;;;19.70;99.90;;;;;;5067078;28;20220;-64
2022/07/03 02:43:09;;;;;;;;;;;19.70;99.90;;;;;;5075472;28;20198;-64
2022/07/03 02:45:40;;;;;;;;;;;19.70;99.90;;;;;;5071519;28;20403;-64
2022/07/03 02:48:11;;;;;;;;;;;19.60;99.90;;;;;;5070240;28;20244;-64
2022/07/03 02:50:41;;;;;;;;;;;19.70;99.90;;;;;;5072650;28;20263;-64
2022/07/03 02:53:12;;;;;;;;;;;19.80;99.90;;;;;;5068848;28;20280;-64
2022/07/03 02:55:43;;;;;;;;;;;19.70;99.90;;;;;;5068484;28;20189;-64
2022/07/03 02:58:19;;;;;;;;;;;19.80;99.90;;;;;;5071563;28;20748;-64
2022/07/03 03:00:53;;;;;;;;;;;20.00;99.90;;;;;;5071517;28;20675;-63
2022/07/03 03:03:27;;;;;;;;;;;19.90;99.90;;;;;;5071676;28;20194;-64
2022/07/03 03:05:56;;;;;;;;;;;19.70;99.90;;;;;;5071026;28;20202;-64
2022/07/03 03:08:29;;;;;;;;;;;19.60;99.90;;;;;;5075422;28;20243;-64
2022/07/03 03:11:00;;;;;;;;;;;19.50;99.90;;;;;;5094977;22;20267;31
2022/07/03 03:13:31;;;;;;;;;;;19.30;99.90;;;;;;5071922;28;20205;-69
2022/07/03 03:16:05;;;;;;;;;;;19.20;99.90;;;;;;5073953;28;20628;-69
2022/07/03 03:18:34;;;;;;;;;;;19.10;99.90;;;;;;5077916;28;20332;-68
2022/07/03 03:21:03;;;;;;;;;;;19.20;99.90;;;;;;5074357;28;20193;-68
2022/07/03 03:23:35;;;;;;;;;;;19.20;99.90;;;;;;5061084;28;20230;-69
2022/07/03 03:26:03;;;;;;;;;;;19.20;99.90;;;;;;5072042;28;20193;-69
2022/07/03 03:28:31;;;;;;;;;;;19.30;99.90;;;;;;5062201;28;20213;-67
2022/07/03 03:30:59;;;;;;;;;;;19.30;99.90;;;;;;5061018;28;20267;-70
2022/07/03 03:33:28;;;;;;;;;;;19.40;99.90;;;;;;5065392;28;20206;-69
2022/07/03 03:35:56;;;;;;;;;;;19.40;99.90;;;;;;5064845;28;20693;-69
2022/07/03 03:38:24;;;;;;;;;;;19.40;99.90;;;;;;5064591;28;20194;-68
2022/07/03 03:40:52;;;;;;;;;;;19.40;99.90;;;;;;5073206;28;20251;-71
2022/07/03 03:43:20;;;;;;;;;;;19.50;99.90;;;;;;5069407;28;20606;-69
2022/07/03 03:45:48;;;;;;;;;;;19.50;99.90;;;;;;5070421;28;20205;-68
2022/07/03 03:48:16;;;;;;;;;;;19.50;99.90;;;;;;5069202;28;20348;-68
2022/07/03 03:50:45;;;;;;;;;;;19.40;99.90;;;;;;5070347;28;20194;-68
2022/07/03 03:53:13;;;;;;;;;;;19.30;99.90;;;;;;5069822;28;20225;-69
2022/07/03 03:55:54;;;;;;;;;;;19.10;99.90;;;;;;5069782;28;20599;-69
2022/07/03 03:58:21;;;;;;;;;;;19.00;99.90;;;;;;5070487;28;20197;-69
2022/07/03 04:00:49;;;;;;;;;;;19.00;99.90;;;;;;5068795;28;20259;-69
2022/07/03 04:03:17;;;;;;;;;;;19.10;99.90;;;;;;5070928;28;20732;-69
2022/07/03 04:05:46;;;;;;;;;;;19.10;99.90;;;;;;5069977;28;20251;-69
2022/07/03 04:08:14;;;;;;;;;;;19.00;99.90;;;;;;5068489;28;20205;-69
2022/07/03 04:10:41;;;;;;;;;;;19.10;99.90;;;;;;5070529;28;20198;-70
2022/07/03 04:13:09;;;;;;;;;;;19.20;99.90;;;;;;5067472;28;20259;-69
2022/07/03 04:15:37;;;;;;;;;;;19.30;99.90;;;;;;5066212;28;20194;-69
2022/07/03 04:18:05;;;;;;;;;;;19.20;99.90;;;;;;5070993;28;20194;-69
2022/07/03 04:20:33;;;;;;;;;;;19.30;99.90;;;;;;5077690;28;20193;-69
2022/07/03 04:23:02;;;;;;;;;;;19.20;99.90;;;;;;5070853;28;20708;-70
2022/07/03 04:25:30;;;;;;;;;;;19.10;99.90;;;;;;5071196;28;20721;-70
2022/07/03 04:27:58;;;;;;;;;;;19.20;99.90;;;;;;5068434;28;20206;-69
2022/07/03 04:30:46;;;;;;;;;;;19.30;99.90;;;;;;5070642;28;20221;-66
2022/07/03 04:33:14;;;;;;;;;;;19.40;99.90;;;;;;5070877;28;20847;-69
2022/07/03 04:35:42;;;;;;;;;;;19.40;99.90;;;;;;5075416;28;20196;-69
2022/07/03 04:38:11;;;;;;;;;;;19.40;99.90;;;;;;5071463;28;20234;-68
2022/07/03 04:40:39;;;;;;;;;;;19.50;99.90;;;;;;5070646;28;20201;-69
2022/07/03 04:43:06;;;;;;;;;;;19.50;99.90;;;;;;5066025;28;20699;-68
2022/07/03 04:45:34;;;;;;;;;;;19.60;99.90;;;;;;5064564;28;20194;-68
2022/07/03 04:48:02;;;;;;;;;;;19.60;99.90;;;;;;5069997;28;20259;-69
2022/07/03 04:50:30;;;;;;;;;;;19.60;99.90;;;;;;5070467;28;20197;-70
2022/07/03 04:52:58;;;;;;;;;;;19.80;99.90;;;;;;5062891;28;20247;-65
2022/07/03 04:55:27;;;;;;;;;;;19.90;99.90;;;;;;5048816;28;20871;-67
2022/07/03 04:57:54;;;;;;;;;;;19.90;99.90;;;;;;5060371;28;20725;-66
2022/07/03 05:00:22;;;;;;;;;;;19.90;99.90;;;;;;5045806;28;20201;-66
2022/07/03 05:02:50;;;;;;;;;;;19.90;99.90;;;;;;5048852;28;20270;-66
2022/07/03 05:05:18;;;;;;;;;;;20.00;99.90;;;;;;5045434;28;21180;-67
2022/07/03 05:07:46;;;;;;;;;;;20.00;99.90;;;;;;5046233;28;20209;-68
2022/07/03 05:10:13;;;;;;;;;;;20.00;99.90;;;;;;5045571;28;20263;-68
2022/07/03 05:12:42;;;;;;;;;;;20.20;99.90;;;;;;5048032;28;20213;-68
2022/07/03 05:15:10;;;;;;;;;;;20.20;99.90;;;;;;5043633;28;20210;-68
2022/07/03 05:17:38;;;;;;;;;;;20.20;99.90;;;;;;5047734;28;20255;-65
2022/07/03 05:20:25;;;;;;;;;;;20.20;99.90;;;;;;5045036;28;20255;-66
2022/07/03 05:22:53;;;;;;;;;;;20.40;99.90;;;;;;5049664;28;20216;-66
2022/07/03 05:25:21;;;;;;;;;;;20.50;99.90;;;;;;5046751;28;20198;-67
2022/07/03 05:27:50;;;;;;;;;;;20.70;99.90;;;;;;5048745;28;20670;-68
2022/07/03 05:30:18;;;;;;;;;;;20.60;99.90;;;;;;5042106;28;20214;-68
2022/07/03 05:32:46;;;;;;;;;;;20.80;99.90;;;;;;5050710;28;20814;-66
2022/07/03 05:35:14;;;;;;;;;;;20.80;99.90;;;;;;5047568;28;20210;-67
2022/07/03 05:37:41;;;;;;;;;;;20.90;99.90;;;;;;5047692;28;20255;-68
2022/07/03 05:40:10;;;;;;;;;;;20.90;99.90;;;;;;5048327;28;20212;-68
2022/07/03 05:42:38;;;;;;;;;;;20.90;99.90;;;;;;5047612;28;20197;-68
2022/07/03 05:45:08;;;;;;;;;;;21.00;99.90;;;;;;5047187;28;20186;-68
2022/07/03 05:47:35;;;;;;;;;;;21.00;99.90;;;;;;5048963;28;20247;-65
2022/07/03 05:50:03;;;;;;;;;;;21.10;99.90;;;;;;5048281;28;20197;-65
2022/07/03 05:52:31;;;;;;;;;;;21.10;99.90;;;;;;5044496;28;20240;-68
2022/07/03 05:54:59;;;;;;;;;;;21.10;99.90;;;;;;5048309;28;20198;-70
2022/07/03 05:57:27;;;;;;;;;;;21.20;99.90;;;;;;5050165;28;20286;-68
2022/07/03 06:00:00;;;;;;;;;;;21.40;99.90;;;;;;5046189;28;20277;-66
2022/07/03 06:02:29;;;;;;;;;;;21.40;99.90;;;;;;5049603;28;20205;-67
2022/07/03 06:04:57;;;;;;;;;;;21.40;99.90;;;;;;5048223;28;20718;-68
2022/07/03 06:07:24;;;;;;;;;;;21.40;99.90;;;;;;5046157;28;20214;-67
2022/07/03 06:09:53;;;;;;;;;;;21.40;99.90;;;;;;5045452;28;20189;-66
2022/07/03 06:12:20;;;;;;;;;;;21.50;99.90;;;;;;5048050;28;20238;-67
2022/07/03 06:14:48;;;;;;;;;;;21.40;99.90;;;;;;5050071;28;20204;-68
2022/07/03 06:17:16;;;;;;;;;;;21.30;99.90;;;;;;5052077;28;20283;-68
2022/07/03 06:19:45;;;;;;;;;;;21.40;99.90;;;;;;5048731;28;20209;-68
2022/07/03 06:22:13;;;;;;;;;;;21.50;99.90;;;;;;5052122;28;20193;-67
2022/07/03 06:24:41;;;;;;;;;;;21.70;99.90;;;;;;5051512;28;20275;-66
2022/07/03 06:27:09;;;;;;;;;;;21.70;99.90;;;;;;5051580;28;20318;-66
2022/07/03 06:29:37;;;;;;;;;;;21.80;99.90;;;;;;5051739;28;20247;-66
2022/07/03 06:32:05;;;;;;;;;;;22.00;99.90;;;;;;5048872;28;20259;-68
2022/07/03 06:34:33;;;;;;;;;;;22.00;99.90;;;;;;5049382;28;20689;-67
2022/07/03 06:37:02;;;;;;;;;;;22.00;99.90;;;;;;5051206;28;20198;-68
2022/07/03 06:39:30;;;;;;;;;;;22.10;99.90;;;;;;5049057;28;20210;-66
2022/07/03 06:41:57;;;;;;;;;;;22.20;99.90;;;;;;5050877;28;20758;-66
2022/07/03 06:44:25;;;;;;;;;;;22.30;99.90;;;;;;5033291;28;20197;-65
2022/07/03 06:46:53;;;;;;;;;;;22.40;99.90;;;;;;5047303;28;20199;-66
2022/07/03 06:49:21;;;;;;;;;;;22.30;99.90;;;;;;5048899;28;20209;-67
2022/07/03 06:51:49;;;;;;;;;;;22.30;99.90;;;;;;5045827;28;20275;-67
2022/07/03 06:54:18;;;;;;;;;;;22.40;99.90;;;;;;5050738;28;21036;-67
2022/07/03 06:56:46;;;;;;;;;;;22.40;99.90;;;;;;5054835;28;20581;-68
2022/07/03 06:59:14;;;;;;;;;;;22.50;99.90;;;;;;5044915;28;20812;-68
2022/07/03 07:01:41;;;;;;;;;;;22.50;99.90;;;;;;5047310;28;20218;-68
2022/07/03 07:04:09;;;;;;;;;;;22.60;99.90;;;;;;5046721;28;20208;-66
2022/07/03 07:06:37;;;;;;;;;;;22.70;99.90;;;;;;5048261;28;20684;-67
2022/07/03 07:09:05;;;;;;;;;;;22.80;99.90;;;;;;5051725;28;20229;-67
2022/07/03 07:11:34;;;;;;;;;;;22.90;99.90;;;;;;5050529;28;20202;-68
2022/07/03 07:14:02;;;;;;;;;;;22.90;99.90;;;;;;5051371;28;20206;-66
2022/07/03 07:16:30;;;;;;;;;;;23.00;99.90;;;;;;5050617;28;20225;-67
2022/07/03 07:18:58;;;;;;;;;;;23.00;99.90;;;;;;5034725;28;21524;-67
2022/07/03 07:21:25;;;;;;;;;;;23.00;99.90;;;;;;5048567;28;20076;-67
2022/07/03 07:23:53;;;;;;;;;;;23.00;99.90;;;;;;5049724;28;20252;-67
2022/07/03 07:26:21;;;;;;;;;;;23.00;99.90;;;;;;5052067;28;20209;-67
2022/07/03 07:28:50;;;;;;;;;;;23.10;99.90;;;;;;5050466;28;20298;-68
2022/07/03 07:31:18;;;;;;;;;;;23.10;99.90;;;;;;5046667;28;20274;-68
2022/07/03 07:33:46;;;;;;;;;;;23.20;99.90;;;;;;5045177;28;20202;-67
2022/07/03 07:36:14;;;;;;;;;;;23.40;99.90;;;;;;5049694;28;20288;-68
2022/07/03 07:38:42;;;;;;;;;;;23.60;99.90;;;;;;5048847;28;20202;-66
2022/07/03 07:41:10;;;;;;;;;;;23.80;99.90;;;;;;5047554;28;20682;-66
2022/07/03 07:43:38;;;;;;;;;;;23.90;99.90;;;;;;5048827;28;20248;-67
2022/07/03 07:46:07;;;;;;;;;;;24.00;99.90;;;;;;5049049;28;20256;-66
2022/07/03 07:48:35;;;;;;;;;;;23.90;99.90;;;;;;5049937;28;20280;-67
2022/07/03 07:51:03;;;;;;;;;;;24.10;99.90;;;;;;5049591;28;20206;-67
2022/07/03 07:53:31;;;;;;;;;;;24.30;99.90;;;;;;5049628;28;20285;-66
2022/07/03 07:55:58;;;;;;;;;;;24.40;99.90;;;;;;5048360;28;20218;-66
2022/07/03 07:58:26;;;;;;;;;;;24.50;99.90;;;;;;5050159;28;20217;-67
2022/07/03 08:06:26;;;;;;;;;;;25.00;99.90;;;;;;5049481;28;20201;-67
2022/07/03 08:08:54;;;;;;;;;;;25.10;99.40;;;;;;5046826;28;20205;-67
2022/07/03 08:11:22;;;;;;;;;;;25.30;99.60;;;;;;5046213;28;20292;-66
2022/07/03 08:13:49;;;;;;;;;;;25.40;99.90;;;;;;5047808;28;20226;-70
2022/07/03 08:16:18;;;;;;;;;;;25.40;99.80;;;;;;5048279;28;20236;-69
2022/07/03 08:18:47;;;;;;;;;;;25.50;99.10;;;;;;5048330;28;20202;-70
2022/07/03 08:21:15;;;;;;;;;;;25.60;98.80;;;;;;5042153;28;20206;-68
2022/07/03 08:23:43;;;;;;;;;;;25.70;98.30;;;;;;5048689;28;21019;-68
2022/07/03 08:26:10;;;;;;;;;;;25.80;98.40;;;;;;5049245;28;20230;-68
2022/07/03 08:28:38;;;;;;;;;;;26.00;98.70;;;;;;5049469;28;20202;-66
2022/07/03 08:31:06;;;;;;;;;;;26.30;98.70;;;;;;5041142;28;20268;-67
2022/07/03 08:33:34;;;;;;;;;;;26.40;97.80;;;;;;5046562;28;20212;-69
2022/07/03 08:36:06;;;;;;;;;;;26.50;98.50;;;;;;5046651;28;20198;-70
2022/07/03 08:38:35;;;;;;;;;;;26.80;98.40;;;;;;5046807;28;20197;-67
2022/07/03 08:41:04;;;;;;;;;;;27.00;97.30;;;;;;5047101;28;20208;-69
2022/07/03 08:43:31;;;;;;;;;;;27.00;96.70;;;;;;5046780;28;20197;-67
2022/07/03 08:46:00;;;;;;;;;;;27.20;96.60;;;;;;5047080;28;21017;-67
2022/07/03 08:48:28;;;;;;;;;;;27.20;96.40;;;;;;5052478;28;20201;-67
2022/07/03 08:50:57;;;;;;;;;;;27.40;96.20;;;;;;5049535;28;20240;-67
2022/07/03 08:53:27;;;;;;;;;;;27.60;96.80;;;;;;5056079;28;20213;-68
2022/07/03 08:55:55;;;;;;;;;;;27.70;96.30;;;;;;5048397;28;20243;-66
2022/07/03 08:58:23;;;;;;;;;;;27.80;96.20;;;;;;5047739;28;20221;-68
2022/07/03 09:00:51;;;;;;;;;;;28.00;95.50;;;;;;5045932;28;20267;-69
2022/07/03 09:03:20;;;;;;;;;;;28.20;96.10;;;;;;5047248;28;20202;-67
2022/07/03 09:05:48;;;;;;;;;;;28.20;94.80;;;;;;5045448;28;20209;-69
2022/07/03 09:08:17;;;;;;;;;;;28.40;94.30;;;;;;5047205;28;20198;-69
2022/07/03 09:10:46;;;;;;;;;;;28.70;95.20;;;;;;5043075;28;20259;-70
2022/07/03 09:13:14;;;;;;;;;;;29.20;94.90;;;;;;5046945;28;20295;-68
2022/07/03 09:15:44;;;;;;;;;;;29.30;94.00;;;;;;5045412;28;20217;-70
2022/07/03 09:18:11;;;;;;;;;;;29.50;94.30;;;;;;5046366;28;20795;-68
2022/07/03 09:20:40;;;;;;;;;;;29.50;93.20;;;;;;5045010;28;20206;-68
2022/07/03 09:23:17;;;;;;;;;;;29.70;93.40;;;;;;5043746;28;20200;-66
2022/07/03 09:25:53;;;;;;;;;;;30.10;92.60;;;;;;5048961;28;20210;-69
2022/07/03 09:28:21;;;;;;;;;;;30.20;93.10;;;;;;5044771;28;20206;-66
2022/07/03 09:30:59;;;;;;;;;;;30.40;93.20;;;;;;5048154;28;20217;-67
2022/07/03 09:33:27;;;;;;;;;;;30.80;93.10;;;;;;5048573;28;20221;-66
2022/07/03 09:35:55;;;;;;;;;;;31.00;90.90;;;;;;5049885;28;20263;-69
2022/07/03 09:38:23;;;;;;;;;;;31.10;90.40;;;;;;5045951;28;20252;-67
2022/07/03 09:40:54;;;;;;;;;;;31.10;88.80;;;;;;5048111;28;20715;-66
2022/07/03 09:43:26;;;;;;;;;;;31.20;87.50;;;;;;5047479;28;20197;-68
2022/07/03 09:45:54;;;;;;;;;;;31.10;87.00;;;;;;5049980;28;20260;-68
2022/07/03 09:48:26;;;;;;;;;;;31.10;87.00;;;;;;5046745;28;20651;-67
2022/07/03 09:51:10;;;;;;;;;;;31.00;84.30;;;;;;5047001;28;20694;-69
2022/07/03 09:53:45;;;;;;;;;;;31.10;86.10;;;;;;5047679;28;20733;-69
2022/07/03 09:56:16;;;;;;;;;;;31.50;84.60;;;;;;5051001;28;20312;-70
2022/07/03 09:58:58;;;;;;;;;;;31.80;84.20;;;;;;5052330;28;20681;-69
2022/07/03 10:01:26;;;;;;;;;;;32.10;82.60;;;;;;5048144;28;21041;-67
2022/07/03 10:03:54;;;;;;;;;;;32.30;80.20;;;;;;5049656;28;20928;-68
2022/07/03 10:06:22;;;;;;;;;;;32.30;80.30;;;;;;5052614;28;20198;-70
2022/07/03 10:08:51;;;;;;;;;;;32.20;79.10;;;;;;5050251;28;20696;-69
2022/07/03 10:11:20;;;;;;;;;;;31.90;79.60;;;;;;5049963;28;20203;-69
2022/07/03 10:13:48;;;;;;;;;;;31.90;79.40;;;;;;5051812;28;20202;-70
2022/07/03 10:16:16;;;;;;;;;;;32.20;79.70;;;;;;5048882;28;20258;-69
2022/07/03 10:18:48;;;;;;;;;;;32.50;78.70;;;;;;5052472;28;20198;-68
2022/07/03 10:21:16;;;;;;;;;;;32.60;78.10;;;;;;5047578;28;20246;-68
2022/07/03 10:23:45;;;;;;;;;;;32.30;79.60;;;;;;5048222;28;20971;-68
2022/07/03 10:26:13;;;;;;;;;;;31.80;78.20;;;;;;5047887;28;20193;-69
2022/07/03 10:28:42;;;;;;;;;;;32.00;78.90;;;;;;5047713;28;20178;-69
2022/07/03 10:31:10;;;;;;;;;;;32.10;78.00;;;;;;5045483;28;20196;-70
2022/07/03 10:33:38;;;;;;;;;;;32.20;78.60;;;;;;5043746;28;20198;-69
2022/07/03 10:36:06;;;;;;;;;;;32.10;76.60;;;;;;5043829;28;20648;-68
2022/07/03 10:38:39;;;;;;;;;;;32.30;78.80;;;;;;5062162;28;20209;-67
2022/07/03 10:46:48;;;;;;;;;;;33.50;74.90;;;;;;5053001;28;20173;-69
2022/07/03 10:49:21;;;;;;;;;;;33.60;74.70;;;;;;5049680;28;20188;-67
2022/07/03 10:51:53;;;;;;;;;;;33.80;74.50;;;;;;5051480;28;20197;-68
2022/07/03 10:54:22;;;;;;;;;;;33.40;74.50;;;;;;5048477;28;21645;-68
2022/07/03 10:57:05;;;;;;;;;;;33.20;73.90;;;;;;5049179;28;20052;-66
2022/07/03 10:59:52;;;;;;;;;;;33.10;73.90;;;;;;5047840;28;20274;-68
2022/07/03 11:02:22;;;;;;;;;;;33.10;72.60;;;;;;5048428;28;20297;-68
2022/07/03 11:05:04;;;;;;;;;;;32.80;73.00;;;;;;5051449;28;20216;-68
2022/07/03 11:07:57;;;;;;;;;;;33.10;72.90;;;;;;5046008;28;20256;-67
2022/07/03 11:10:32;;;;;;;;;;;33.30;71.00;;;;;;5047477;28;20177;-68
2022/07/03 11:13:00;;;;;;;;;;;33.10;69.60;;;;;;5048963;28;20228;-68
2022/07/03 11:15:29;;;;;;;;;;;32.90;70.10;;;;;;5051337;28;20192;-70
2022/07/03 11:18:15;;;;;;;;;;;32.60;72.10;;;;;;5049504;28;20189;-68
2022/07/03 11:21:13;;;;;;;;;;;32.60;70.70;;;;;;5047395;28;20184;-69
2022/07/03 11:23:46;;;;;;;;;;;32.90;72.50;;;;;;5047667;28;20654;-69
2022/07/03 11:26:22;;;;;;;;;;;33.50;70.90;;;;;;5050255;28;20657;-69
2022/07/03 11:28:50;;;;;;;;;;;33.80;70.20;;;;;;5048595;28;26188;-68
2022/07/03 11:31:21;;;;;;;;;;;34.10;69.40;;;;;;5050657;28;20272;-69
2022/07/03 11:33:50;;;;;;;;;;;34.20;70.80;;;;;;5045633;28;20199;-68
2022/07/03 11:36:26;;;;;;;;;;;34.60;69.70;;;;;;5046335;28;20685;-69
2022/07/03 11:39:04;;;;;;;;;;;34.80;69.40;;;;;;5047703;28;20205;-69
2022/07/03 11:41:42;;;;;;;;;;;34.80;69.30;;;;;;5044700;28;20214;-69
2022/07/03 11:44:10;;;;;;;;;;;35.20;70.70;;;;;;5049863;28;20196;-70
2022/07/03 11:46:39;;;;;;;;;;;35.40;68.60;;;;;;5049936;28;20207;-68
2022/07/03 11:49:07;;;;;;;;;;;35.30;69.80;;;;;;5050025;28;20231;-68
2022/07/03 11:51:35;;;;;;;;;;;35.40;68.30;;;;;;5049281;28;20213;-68
2022/07/03 11:54:05;;;;;;;;;;;35.60;68.30;;;;;;5049104;28;20670;-68
2022/07/03 11:56:33;;;;;;;;;;;35.50;69.00;;;;;;5050009;28;20209;-69
2022/07/03 11:59:02;;;;;;;;;;;35.40;67.00;;;;;;5048585;28;20257;-68
2022/07/03 12:01:31;;;;;;;;;;;35.10;69.00;;;;;;5046503;28;20764;-69
2022/07/03 12:04:06;;;;;;;;;;;34.90;67.90;;;;;;5048343;28;20179;-68
2022/07/03 12:06:34;;;;;;;;;;;34.90;67.50;;;;;;5048351;28;20232;-69
2022/07/03 12:09:02;;;;;;;;;;;34.90;67.70;;;;;;5047056;28;20187;-69
2022/07/03 12:11:31;;;;;;;;;;;35.30;68.50;;;;;;5045211;28;20246;-69
2022/07/03 12:13:59;;;;;;;;;;;35.70;66.80;;;;;;5047573;28;20284;-69
2022/07/03 12:16:32;;;;;;;;;;;35.30;66.20;;;;;;5048908;28;20188;-69
2022/07/03 12:19:04;;;;;;;;;;;34.60;66.20;;;;;;5047450;28;20203;-69
2022/07/03 12:21:36;;;;;;;;;;;34.70;68.10;;;;;;5048963;28;20289;-69
2022/07/03 12:24:09;;;;;;;;;;;35.00;66.00;;;;;;5046206;28;20219;-69
2022/07/03 12:26:39;;;;;;;;;;;35.40;69.00;;;;;;5043115;28;20197;-69
2022/07/03 12:29:10;;;;;;;;;;;35.70;66.70;;;;;;5046931;28;20888;-69
2022/07/03 12:31:39;;;;;;;;;;;35.70;66.30;;;;;;5045852;28;20251;-68
2022/07/03 12:34:07;;;;;;;;;;;36.10;66.10;;;;;;5044667;28;20231;-69
2022/07/03 12:36:35;;;;;;;;;;;35.80;63.40;;;;;;5048092;28;21648;-69
2022/07/03 12:39:03;;;;;;;;;;;35.60;65.50;;;;;;5048237;28;20269;-69
2022/07/03 12:41:31;;;;;;;;;;;34.70;65.50;;;;;;5045439;28;20206;-69
2022/07/03 12:44:00;;;;;;;;;;;34.40;65.40;;;;;;5047327;28;20726;-69
2022/07/03 12:46:33;;;;;;;;;;;34.60;66.40;;;;;;5050838;28;20216;-69
2022/07/03 12:49:09;;;;;;;;;;;34.90;66.70;;;;;;5045199;28;20212;-68
2022/07/03 12:51:39;;;;;;;;;;;35.20;65.20;;;;;;5045641;28;20234;-69
2022/07/03 12:54:07;;;;;;;;;;;35.30;64.80;;;;;;5047555;28;20271;-68
2022/07/03 12:56:34;;;;;;;;;;;35.40;63.70;;;;;;5044551;28;20184;-69
2022/07/03 12:59:18;;;;;;;;;;;35.30;64.50;;;;;;5046803;28;20309;-68
2022/07/03 13:02:00;;;;;;;;;;;35.70;65.20;;;;;;5047325;28;20936;-68
2022/07/03 13:04:31;;;;;;;;;;;36.20;64.20;;;;;;5048098;28;20416;-69
2022/07/03 13:07:02;;;;;;;;;;;36.50;62.50;;;;;;5046427;28;20205;-68
2022/07/03 13:09:30;;;;;;;;;;;36.80;65.10;;;;;;5045216;28;20259;-68
2022/07/03 13:11:58;;;;;;;;;;;36.80;64.60;;;;;;5046453;28;20593;-68
2022/07/03 13:14:27;;;;;;;;;;;36.90;63.40;;;;;;5044579;28;20288;-68
2022/07/03 13:16:56;;;;;;;;;;;36.50;62.30;;;;;;5046477;28;20222;-68
2022/07/03 13:19:24;;;;;;;;;;;36.60;60.90;;;;;;5047190;28;20361;-68
2022/07/03 13:21:53;;;;;;;;;;;36.50;63.00;;;;;;5048161;28;21363;-68
2022/07/03 13:24:21;;;;;;;;;;;36.80;61.90;;;;;;5043766;28;20176;-68
2022/07/03 13:26:49;;;;;;;;;;;37.30;61.80;;;;;;5045215;28;20201;-68
2022/07/03 13:29:20;;;;;;;;;;;37.60;61.20;;;;;;5044302;28;20187;-69
2022/07/03 13:31:49;;;;;;;;;;;37.90;61.40;;;;;;5046126;28;20259;-68
2022/07/03 13:34:18;;;;;;;;;;;37.40;60.60;;;;;;5044404;28;20610;-69
2022/07/03 13:36:46;;;;;;;;;;;37.00;61.50;;;;;;5041532;28;20215;-68
2022/07/03 13:39:13;;;;;;;;;;;36.60;60.90;;;;;;5045540;28;21185;-70
2022/07/03 13:41:41;;;;;;;;;;;36.50;61.60;;;;;;5043919;28;20615;-68
2022/07/03 13:44:09;;;;;;;;;;;36.90;61.50;;;;;;5045898;28;20214;-68
2022/07/03 13:46:37;;;;;;;;;;;37.40;60.60;;;;;;5046531;28;20219;-68
2022/07/03 13:49:06;;;;;;;;;;;37.90;62.70;;;;;;5044363;28;20204;-68
2022/07/03 13:51:34;;;;;;;;;;;38.30;60.70;;;;;;5043530;28;20226;-68
2022/07/03 13:54:02;;;;;;;;;;;38.90;59.40;;;;;;5047732;28;20207;-68
2022/07/03 13:56:29;;;;;;;;;;;39.00;60.30;;;;;;5043232;28;20180;-68
2022/07/03 13:58:57;;;;;;;;;;;38.70;59.30;;;;;;5046781;28;20319;-69
2022/07/03 14:01:25;;;;;;;;;;;38.70;59.10;;;;;;5041275;28;20647;-68
2022/07/03 14:03:53;;;;;;;;;;;38.30;60.10;;;;;;5046370;28;20201;-68
2022/07/03 14:06:22;;;;;;;;;;;37.70;60.60;;;;;;5045440;28;20269;-68
2022/07/03 14:08:50;;;;;;;;;;;37.30;60.80;;;;;;5044414;28;20273;-68
2022/07/03 14:11:18;;;;;;;;;;;36.80;60.00;;;;;;5043180;28;20193;-69
2022/07/03 14:13:46;;;;;;;;;;;36.80;60.10;;;;;;5050746;28;20223;-69
2022/07/03 14:16:14;;;;;;;;;;;37.30;58.60;;;;;;5045478;28;20204;-69
2022/07/03 14:18:41;;;;;;;;;;;37.60;60.40;;;;;;5044551;28;20199;-68
2022/07/03 14:21:09;;;;;;;;;;;37.10;59.40;;;;;;5046227;28;21305;-68
2022/07/03 14:23:38;;;;;;;;;;;37.20;61.40;;;;;;5040454;28;20257;-68
2022/07/03 14:26:06;;;;;;;;;;;37.40;59.40;;;;;;5044809;28;20182;-68
2022/07/03 14:34:04;;;;;;;;;;;36.10;59.10;;;;;;5047150;28;20302;-68
2022/07/03 14:36:32;;;;;;;;;;;35.30;60.90;;;;;;5047478;28;20180;-69
2022/07/03 14:39:14;;;;;;;;;;;34.90;61.80;;;;;;5049742;28;20208;-69
2022/07/03 14:41:42;;;;;;;;;;;34.90;61.00;;;;;;5046179;28;20204;-68
2022/07/03 14:44:10;;;;;;;;;;;35.40;61.40;;;;;;5049157;28;20196;-68
2022/07/03 14:46:38;;;;;;;;;;;35.60;60.80;;;;;;5049132;28;20193;-68